Somerville, Maine
Current Conditions -  °F | °C
As of 6:53 PM on Sunday 21 Dec 2014 (Local Time) from KAUG Reporting Station
Clear Clear  
Wind Chill: 19°   Ceiling: Unl
Heat Index: 25°   Visibility: 10mi
Dew Point: 20°   Wind: 5mph
Humidity: 81%   Direction: 340°NNW
Pressure: 30.36"   Gusts: NA
Location:  44.1756°N, 69.5044°W
Report Text: KAUG 212353Z AUTO 34004KT 10SM CLR M04/M07 A3036 RMK AO2 SLP287 T10391067 11011 21039 51010
Loading
Personal Weather Stations






























Interactive Weather Map New forecast layout! Learn more

10-Day Weather Forecast

Advertisements
Track Severe Weather on mobile